Time;durP1;ratioP1;P1;durP2;ratioP2;P2;SDS_P1;SDS_P2;PMS_P1;PMS_P2;Temp;Humidity;BMP_temperature;BMP_pressure;BME280_temperature;BME280_humidity;BME280_pressure;Samples;Min_cycle;Max_cycle;Signal;HPM_P1;HPM_P2
2022/05/27 00:01:33;;;;;;;;;9.00;7.00;;;;;18.44;74.03;100000.88;6289314;20;2743008;-52
2022/05/27 00:04:03;;;;;;;;;7.00;5.50;;;;;18.23;75.37;99997.34;6288557;20;2750245;-51
2022/05/27 00:06:32;;;;;;;;;8.00;8.00;;;;;18.20;75.90;99991.19;6295649;20;2747145;-50
2022/05/27 00:09:02;;;;;;;;;9.40;7.60;;;;;18.36;75.99;99995.25;6308661;20;2747174;-55
2022/05/27 00:11:30;;;;;;;;;8.00;7.00;;;;;18.33;75.59;99990.09;6316996;20;2750335;-51
2022/05/27 00:13:59;;;;;;;;;5.00;5.00;;;;;18.57;72.75;99985.16;6289020;20;2734615;-52
2022/05/27 00:16:28;;;;;;;;;6.00;6.00;;;;;18.39;73.65;99976.81;6291226;20;2731539;-52
2022/05/27 00:18:58;;;;;;;;;6.80;6.80;;;;;18.42;72.86;99975.66;6308548;20;2740017;-53
2022/05/27 00:21:28;;;;;;;;;6.20;6.20;;;;;18.55;71.95;99978.16;6341952;20;2744006;-53
2022/05/27 00:23:59;;;;;;;;;7.00;7.00;;;;;18.50;73.09;99974.97;6341431;20;2746097;-54
2022/05/27 00:26:29;;;;;;;;;7.60;7.60;;;;;18.47;72.55;99973.41;6342445;20;2734645;-53
2022/05/27 00:28:57;;;;;;;;;7.00;7.00;;;;;18.38;72.96;99975.09;6315505;20;2742953;-53
2022/05/27 00:31:29;;;;;;;;;7.00;6.00;;;;;18.46;72.96;99974.41;6289219;20;2733602;-51
2022/05/27 00:33:57;;;;;;;;;7.00;7.00;;;;;18.30;74.37;99974.03;6286071;20;2750277;-51
2022/05/27 00:36:27;;;;;;;;;8.00;7.40;;;;;18.37;73.96;99967.06;6311549;20;2739887;-57
2022/05/27 00:38:58;;;;;;;;;7.00;7.00;;;;;18.18;74.93;99959.69;6339885;20;2743999;-58
2022/05/27 00:41:27;;;;;;;;;7.40;7.40;;;;;18.29;75.20;99966.91;6337757;20;2746272;-58
2022/05/27 00:43:55;;;;;;;;;9.50;8.00;;;;;18.45;74.57;99963.66;6285888;20;2758696;-58
2022/05/27 00:46:34;;;;;;;;;10.00;8.40;;;;;18.46;74.41;99959.94;6310081;20;2764902;-58
2022/05/27 00:49:23;;;;;;;;;9.00;9.00;;;;;18.48;73.45;99956.06;6281921;20;2745039;-58
2022/05/27 00:52:07;;;;;;;;;8.00;7.50;;;;;18.56;73.56;99966.25;6284018;20;2741977;-50
2022/05/27 00:54:35;;;;;;;;;7.00;7.00;;;;;18.56;73.32;99967.16;6282095;20;2754459;-52
2022/05/27 00:57:25;;;;;;;;;9.40;8.00;;;;;18.62;72.29;99955.69;6308668;20;2762819;-51
2022/05/27 01:00:04;;;;;;;;;6.00;6.00;;;;;18.50;73.74;99955.94;6283467;20;2737788;-49
2022/05/27 01:02:35;;;;;;;;;11.00;9.00;;;;;18.33;74.47;99952.91;6306451;20;2775278;-51
2022/05/27 01:05:07;;;;;;;;;8.00;8.00;;;;;18.49;73.30;99954.25;6284710;20;2752370;-58
2022/05/27 01:07:37;;;;;;;;;10.40;10.00;;;;;18.60;72.60;99963.13;6307281;20;2792003;-58
2022/05/27 01:10:10;;;;;;;;;9.50;9.50;;;;;18.45;73.76;99953.63;6284804;20;2771146;-58
2022/05/27 01:13:33;;;;;;;;;9.00;8.00;;;;;18.63;72.48;99953.84;6283133;20;2739929;-58
2022/05/27 01:16:20;;;;;;;;;10.67;10.00;;;;;18.65;72.03;99951.84;6281660;20;2789822;-59
2022/05/27 01:22:44;;;;;;;;;12.67;11.67;;;;;18.62;72.20;99955.69;6279171;20;3513780;-59
2022/05/27 01:26:03;;;;;;;;;10.67;10.00;;;;;18.72;71.82;99950.28;6311920;20;3493964;-58
2022/05/27 01:29:07;;;;;;;;;11.00;9.50;;;;;18.54;72.47;99951.97;6318752;20;2783660;-58
2022/05/27 01:31:57;;;;;;;;;9.33;9.33;;;;;18.53;72.75;99951.09;6277913;20;2758604;-49
2022/05/27 01:34:50;;;;;;;;;9.67;9.67;;;;;18.67;72.00;99947.13;6310234;20;2768002;-50
2022/05/27 01:37:39;;;;;;;;;10.00;10.00;;;;;18.56;73.03;99952.66;6315011;20;2794168;-54
2022/05/27 01:40:32;;;;;;;;;9.40;9.00;;;;;18.48;72.47;99956.06;6305726;20;2746096;-49
2022/05/27 01:43:52;;;;;;;;;11.00;11.00;;;;;18.56;72.32;99955.38;6281955;20;3513796;-50
2022/05/27 01:46:37;;;;;;;;;10.00;10.00;;;;;18.34;74.05;99954.59;6315262;20;2797348;-51
2022/05/27 01:49:35;;;;;;;;;9.00;9.00;;;;;18.46;73.07;99944.50;6286854;20;2750305;-52
2022/05/27 01:52:43;;;;;;;;;9.50;9.50;;;;;18.40;73.66;99950.47;6283209;20;2768115;-60
2022/05/27 01:55:24;;;;;;;;;11.00;11.00;;;;;18.29;74.56;99948.72;6280859;20;2797165;-59
2022/05/27 01:58:13;;;;;;;;;13.33;12.00;;;;;18.42;73.20;99943.03;6312355;20;2803349;-58
2022/05/27 02:00:46;;;;;;;;;10.80;10.80;;;;;18.30;73.22;99944.13;6338970;20;2789829;-59
2022/05/27 02:03:36;;;;;;;;;9.00;9.00;;;;;18.18;74.16;99946.97;6298853;20;2752496;-56
2022/05/27 02:06:43;;;;;;;;;13.60;11.00;;;;;18.34;74.17;99945.59;6314374;20;2792994;-58
2022/05/27 02:09:26;;;;;;;;;11.33;9.00;;;;;18.18;74.59;99937.97;6290189;20;2762797;-59
2022/05/27 02:12:10;;;;;;;;;10.60;9.20;;;;;18.24;73.80;99940.13;6348191;20;2780522;-60
2022/05/27 02:14:56;;;;;;;;;8.80;8.20;;;;;18.31;73.36;99938.56;6317731;20;2739277;-58
2022/05/27 02:17:37;;;;;;;;;8.33;8.33;;;;;18.26;74.72;99937.28;6288393;20;2765450;-58
2022/05/27 02:20:14;;;;;;;;;11.33;9.00;;;;;18.17;74.54;99945.25;6318287;20;2766087;-58
2022/05/27 02:23:02;;;;;;;;;9.50;9.50;;;;;18.18;74.35;99940.69;6328195;20;2775234;-59
2022/05/27 02:25:37;;;;;;;;;10.33;10.00;;;;;18.03;75.01;99940.16;6290750;20;2785749;-58
2022/05/27 02:28:36;;;;;;;;;9.00;9.00;;;;;18.10;74.41;99935.91;6328673;20;2748293;-51
2022/05/27 02:31:27;;;;;;;;;10.50;9.00;;;;;18.21;74.54;99935.81;6295059;20;2773273;-59
2022/05/27 02:37:26;;;;;;;;;10.67;9.67;;;;;18.09;74.71;99930.59;6319983;20;2784765;-60
2022/05/27 02:39:58;;;;;;;;;13.00;11.67;;;;;18.05;75.03;99935.47;6317504;20;2789024;-59
2022/05/27 02:42:47;;;;;;;;;9.33;9.00;;;;;17.96;74.88;99941.72;6321934;20;2760706;-60
2022/05/27 02:45:41;;;;;;;;;10.67;10.67;;;;;17.87;75.48;99940.66;6320421;20;3516924;-60
2022/05/27 02:48:42;;;;;;;;;9.00;9.00;;;;;17.95;74.87;99935.41;6321521;20;2737867;-60
2022/05/27 02:51:48;;;;;;;;;11.00;10.00;;;;;17.89;75.17;99938.69;6294803;20;2781501;-60
2022/05/27 02:54:42;;;;;;;;;8.50;7.00;;;;;17.91;75.65;99938.56;6291031;20;2754456;-60
2022/05/27 02:57:26;;;;;;;;;11.67;10.67;;;;;17.82;75.68;99939.34;6292606;20;3513847;-60
2022/05/27 02:59:55;;;;;;;;;14.00;12.00;;;;;17.59;76.07;99944.03;6316583;20;3513786;-60
2022/05/27 03:02:24;;;;;;;;;15.33;14.33;;;;;17.57;76.92;99940.63;6319784;20;3544073;-60
2022/05/27 03:05:00;;;;;;;;;14.50;12.50;;;;;17.73;76.17;99938.28;6296896;20;2791977;-60
2022/05/27 03:07:47;;;;;;;;;16.00;14.00;;;;;17.77;76.58;99935.16;6297234;20;2808651;-53
2022/05/27 03:11:08;;;;;;;;;12.00;11.00;;;;;17.55;77.40;99948.88;6290186;20;2800303;-51
2022/05/27 03:14:17;;;;;;;;;12.67;12.33;;;;;17.43;78.69;99949.94;6281460;20;3529460;-52
2022/05/27 03:17:19;;;;;;;;;11.67;11.67;;;;;17.49;78.56;99941.28;6282930;20;3530480;-50
2022/05/27 03:20:43;;;;;;;;;11.67;11.67;;;;;17.36;78.23;99952.31;6282750;20;3536750;-50
2022/05/27 03:23:33;;;;;;;;;14.67;12.00;;;;;17.46;78.19;99953.25;6281611;20;3531494;-58
2022/05/27 03:26:21;;;;;;;;;11.00;11.00;;;;;17.53;78.13;99953.56;6315113;20;2807547;-58
2022/05/27 03:29:02;;;;;;;;;14.00;13.00;;;;;17.49;77.98;99954.84;6288800;20;2805502;-58
2022/05/27 03:31:44;;;;;;;;;14.00;12.67;;;;;17.57;77.67;99957.75;6284075;20;3534616;-58
2022/05/27 03:34:39;;;;;;;;;10.00;10.00;;;;;17.59;77.56;99961.22;6285098;20;2778524;-58
2022/05/27 03:37:56;;;;;;;;;13.50;12.00;;;;;17.42;79.44;99957.22;6284625;20;2804545;-50
2022/05/27 03:40:40;;;;;;;;;12.00;12.00;;;;;17.41;78.82;99963.66;6277008;20;3524200;-59
2022/05/27 03:43:17;;;;;;;;;14.33;14.33;;;;;17.71;77.38;99960.13;6316635;20;2801321;-58
2022/05/27 03:46:00;;;;;;;;;12.33;11.00;;;;;17.78;77.07;99957.75;6309387;20;3516929;-58
2022/05/27 03:48:34;;;;;;;;;12.00;12.00;;;;;17.67;79.08;99963.28;6319353;20;2798201;-58
2022/05/27 03:51:22;;;;;;;;;12.33;11.33;;;;;17.73;78.44;99963.56;6280781;20;3523147;-59
2022/05/27 03:54:05;;;;;;;;;14.67;13.67;;;;;17.68;77.85;99962.25;6280904;20;3529447;-59
2022/05/27 03:56:40;;;;;;;;;16.00;13.00;;;;;17.75;78.12;99967.03;6281792;20;3519305;-59
2022/05/27 03:59:12;;;;;;;;;11.50;11.50;;;;;17.84;77.02;99965.38;6315419;20;2796120;-58
2022/05/27 04:02:06;;;;;;;;;11.00;11.00;;;;;17.78;77.32;99965.91;6280902;20;3536778;-52
2022/05/27 04:04:35;;;;;;;;;10.33;10.33;;;;;17.86;77.11;99957.13;6312486;20;3512739;-52
2022/05/27 04:07:04;;;;;;;;;11.00;11.00;;;;;18.16;75.88;99965.25;6322813;20;1955619;-50
2022/05/27 04:09:33;;;;;;;;;11.33;11.33;;;;;18.36;74.96;99960.78;6277869;20;3511730;-49
2022/05/27 04:12:01;;;;;;;;;9.50;9.50;;;;;18.32;75.18;99962.03;6318813;20;2770131;-51
2022/05/27 04:14:31;;;;;;;;;11.00;11.00;;;;;18.07;75.45;99960.66;6282186;20;3519019;-52
2022/05/27 04:19:47;;;;;;;;;11.67;10.00;;;;;18.24;75.79;99966.44;6309187;20;2786832;-59
2022/05/27 04:22:15;;;;;;;;;14.00;10.33;;;;;18.32;77.03;99963.91;6311622;20;3511695;-59
2022/05/27 04:24:43;;;;;;;;;12.00;12.00;;;;;18.08;77.30;99962.38;6316684;20;2798170;-59
2022/05/27 04:27:18;;;;;;;;;13.00;13.00;;;;;18.20;76.37;99966.72;6284647;20;3525383;-58
2022/05/27 04:29:51;;;;;;;;;13.33;13.33;;;;;18.13;76.82;99970.97;6279381;20;2795090;-58
2022/05/27 04:32:25;;;;;;;;;13.67;13.67;;;;;18.26;76.28;99964.47;6315105;20;2806538;-49
2022/05/27 04:34:55;;;;;;;;;11.00;11.00;;;;;18.45;76.18;99966.38;6314318;20;3506476;-53
2022/05/27 04:37:25;;;;;;;;;11.00;11.00;;;;;18.53;75.12;99972.84;6314024;20;3503375;-59
2022/05/27 04:39:53;;;;;;;;;11.00;9.50;;;;;18.85;73.45;99958.19;6315355;20;2777420;-52
2022/05/27 04:42:23;;;;;;;;;11.80;9.60;;;;;18.94;73.52;99968.25;6304132;20;2784632;-54
2022/05/27 04:44:52;;;;;;;;;9.00;9.00;;;;;19.17;72.07;99977.00;6290464;20;2758724;-53
2022/05/27 04:47:20;;;;;;;;;10.50;10.00;;;;;19.37;72.63;99975.13;6285325;20;2788827;-55
2022/05/27 04:49:58;;;;;;;;;9.00;9.00;;;;;19.68;70.70;99977.72;6285578;20;2741975;-53
2022/05/27 04:52:32;;;;;;;;;10.20;10.00;;;;;19.48;70.09;99969.56;6309450;20;2797191;-53
2022/05/27 04:55:09;;;;;;;;;10.00;9.80;;;;;19.61;69.78;99963.78;6307243;20;2788877;-50
2022/05/27 04:57:50;;;;;;;;;11.67;10.00;;;;;19.57;70.30;99958.78;6283795;20;2790928;-53
2022/05/27 05:00:27;;;;;;;;;11.60;10.40;;;;;19.52;70.33;99968.25;6335697;20;2778515;-51
2022/05/27 05:02:57;;;;;;;;;1.00;1.00;;;;;19.63;71.44;99971.81;6287529;20;2729410;-54
2022/05/27 05:05:31;;;;;;;;;9.00;9.00;;;;;19.89;68.47;99964.78;6307154;20;2750307;-54
2022/05/27 05:08:12;;;;;;;;;7.40;7.40;;;;;20.32;67.87;99968.78;6336336;20;2749232;-56
2022/05/27 05:10:42;;;;;;;;;7.00;6.00;;;;;20.43;65.64;99972.31;6306889;20;2740904;-53
2022/05/27 05:13:12;;;;;;;;;8.80;7.00;;;;;20.66;65.12;99970.94;6340626;20;2750262;-55
2022/05/27 05:15:42;;;;;;;;;6.60;6.00;;;;;20.70;63.86;99969.63;6308979;20;2741912;-52
2022/05/27 05:18:11;;;;;;;;;8.40;6.80;;;;;20.84;62.88;99976.44;6336783;20;2745101;-52
2022/05/27 05:20:40;;;;;;;;;7.00;7.00;;;;;21.01;62.91;99977.47;6319921;20;2749319;-55
2022/05/27 05:23:09;;;;;;;;;7.20;5.80;;;;;20.90;61.08;99969.50;6339690;20;2740877;-53
2022/05/27 05:25:38;;;;;;;;;7.33;6.00;;;;;21.38;59.56;99971.03;6286129;20;2739936;-52
2022/05/27 05:28:07;;;;;;;;;6.00;6.00;;;;;20.99;59.77;99972.16;6338987;20;2738843;-53
2022/05/27 05:30:37;;;;;;;;;5.00;4.00;;;;;21.29;60.63;99966.47;6337561;20;2739876;-56
2022/05/27 05:33:07;;;;;;;;;7.00;5.20;;;;;21.66;59.49;99969.91;6339234;20;2732588;-52
2022/05/27 05:35:36;;;;;;;;;7.00;5.80;;;;;21.55;60.28;99972.03;6336607;20;2748248;-53
2022/05/27 05:38:06;;;;;;;;;4.80;4.60;;;;;21.77;57.53;99976.97;6309055;20;2740882;-52
2022/05/27 05:40:35;;;;;;;;;3.00;3.00;;;;;21.85;55.40;99971.59;6315227;20;2743995;-55
2022/05/27 05:43:05;;;;;;;;;4.40;3.00;;;;;22.26;53.08;99971.00;6336134;20;2748162;-53
2022/05/27 05:45:35;;;;;;;;;2.40;2.40;;;;;22.49;52.60;99974.88;6339359;20;2739826;-55
2022/05/27 05:48:05;;;;;;;;;2.00;2.00;;;;;22.44;51.12;99977.25;6337813;20;2741936;-54
2022/05/27 05:50:35;;;;;;;;;4.20;2.80;;;;;21.95;51.93;99982.41;6337024;20;2735660;-56
2022/05/27 05:53:04;;;;;;;;;3.67;3.67;;;;;22.27;52.45;99973.56;6312207;20;2756494;-56
2022/05/27 05:55:35;;;;;;;;;4.20;4.00;;;;;22.25;52.69;99970.16;6338413;20;2735741;-54
2022/05/27 05:58:05;;;;;;;;;4.00;4.00;;;;;22.43;52.27;99978.25;6317301;20;2740971;-57
2022/05/27 06:00:34;;;;;;;;;2.60;2.60;;;;;21.94;52.15;99979.84;6334652;20;2730495;-54
2022/05/27 06:03:04;;;;;;;;;3.00;3.00;;;;;21.79;54.29;99974.09;6337785;20;2752379;-52
2022/05/27 06:05:33;;;;;;;;;2.00;2.00;;;;;21.96;54.85;99975.94;6284501;20;2746074;-54
2022/05/27 06:08:03;;;;;;;;;3.20;3.20;;;;;21.90;52.88;99979.28;6338603;20;2748178;-55
2022/05/27 06:10:31;;;;;;;;;3.00;3.00;;;;;21.87;52.60;99976.88;6315280;20;2737797;-54
2022/05/27 06:13:01;;;;;;;;;3.00;3.00;;;;;21.90;52.07;99979.28;6337439;20;2738892;-54
2022/05/27 06:15:29;;;;;;;;;2.00;2.00;;;;;21.79;51.04;99985.03;6316434;20;2744152;-56
2022/05/27 06:18:01;;;;;;;;;2.20;2.00;;;;;22.14;51.27;99974.00;6333910;20;2729477;-56
2022/05/27 06:20:31;;;;;;;;;3.00;3.00;;;;;21.84;50.45;99971.75;6337490;20;2741934;-55
2022/05/27 06:23:05;;;;;;;;;4.67;3.33;;;;;21.76;49.62;99975.28;6313781;20;2754542;-55
2022/05/27 06:25:35;;;;;;;;;3.00;3.00;;;;;22.72;49.15;99980.63;6337936;20;2616938;-53
2022/05/27 06:36:35;;;;;;;;;2.00;2.00;;;;;24.20;43.31;99973.38;6338984;20;2744015;-56
2022/05/27 06:39:07;;;;;;;;;1.80;1.80;;;;;24.00;43.65;99980.28;6334066;20;2744166;-53
2022/05/27 06:41:37;;;;;;;;;2.00;2.00;;;;;24.12;44.31;99967.03;6335023;20;2750250;-57
2022/05/27 06:44:09;;;;;;;;;2.60;2.00;;;;;24.88;42.84;99973.81;6305819;20;2741045;-55
2022/05/27 06:46:39;;;;;;;;;1.00;1.00;;;;;24.47;42.47;99968.53;6337116;20;2726379;-55
2022/05/27 06:49:09;;;;;;;;;1.60;1.60;;;;;24.92;42.11;99969.69;6342187;20;2741963;-58
2022/05/27 06:51:40;;;;;;;;;1.00;1.00;;;;;24.72;42.43;99969.25;6343180;20;2719149;-56
2022/05/27 06:54:10;;;;;;;;;2.60;1.00;;;;;25.46;40.97;99966.06;6343519;20;2724242;-55
2022/05/27 06:56:44;;;;;;;;;3.50;2.00;;;;;25.12;42.77;99962.69;6343927;20;1926480;-55
2022/05/27 06:59:16;;;;;;;;;2.60;1.60;;;;;25.52;42.22;99962.59;6342421;20;2735788;-55
2022/05/27 07:01:45;;;;;;;;;2.80;2.00;;;;;26.25;41.82;99958.28;6341054;20;2744030;-58
2022/05/27 07:04:17;;;;;;;;;1.00;1.00;;;;;26.04;40.34;99962.66;6314090;20;2733594;-58
2022/05/27 07:06:49;;;;;;;;;2.80;1.60;;;;;25.43;41.47;99952.69;6342167;20;2737763;-60
2022/05/27 07:09:22;;;;;;;;;2.40;2.40;;;;;24.33;43.07;99959.13;6341837;20;2733622;-60
2022/05/27 07:11:55;;;;;;;;;1.00;1.00;;;;;24.11;44.13;99957.97;6342143;20;2735663;-55
2022/05/27 07:14:25;;;;;;;;;1.60;1.60;;;;;25.04;42.09;99949.00;6343892;20;2735667;-59
2022/05/27 07:16:53;;;;;;;;;1.00;1.00;;;;;24.84;42.01;99950.50;6321268;20;2723151;-59
2022/05/27 07:19:40;;;;;;;;;3.60;1.00;;;;;25.18;39.56;99950.16;6341185;20;2725365;-59
2022/05/27 07:22:11;;;;;;;;;4.20;1.40;;;;;25.02;40.97;99947.47;6342206;20;2742041;-58
2022/05/27 07:24:42;;;;;;;;;1.00;1.00;;;;;25.69;40.27;99955.91;6342584;20;2728402;-59
2022/05/27 07:27:11;;;;;;;;;1.80;1.00;;;;;25.67;39.38;99954.38;6341600;20;2737895;-59
2022/05/27 07:29:40;;;;;;;;;2.00;2.00;;;;;25.53;40.48;99943.16;6340004;20;2737865;-57
2022/05/27 07:32:10;;;;;;;;;1.60;1.60;;;;;25.96;39.52;99948.97;6342706;20;2742149;-59
2022/05/27 07:34:40;;;;;;;;;1.00;1.00;;;;;25.83;40.13;99949.59;6308389;20;2721154;-53
2022/05/27 07:37:09;;;;;;;;;1.20;1.20;;;;;25.75;39.21;99941.44;6343503;20;2742047;-57
2022/05/27 07:39:38;;;;;;;;;1.00;1.00;;;;;25.69;39.47;99941.31;6311748;20;2727360;-54
2022/05/27 07:42:08;;;;;;;;;3.00;1.00;;;;;25.75;40.45;99941.44;6343662;20;2725316;-57
2022/05/27 07:44:38;;;;;;;;;3.00;1.00;;;;;25.88;38.80;99940.78;6343623;20;2731584;-53
2022/05/27 07:47:07;;;;;;;;;2.00;1.00;;;;;25.99;39.17;99937.59;6337930;20;2728413;-52
2022/05/27 07:49:37;;;;;;;;;3.20;1.00;;;;;25.72;40.06;99940.91;6341083;20;2724248;-51
2022/05/27 07:52:07;;;;;;;;;1.80;1.00;;;;;26.20;39.48;99936.00;6341575;20;2731517;-51
2022/05/27 07:54:37;;;;;;;;;2.00;2.00;;;;;25.94;39.71;99934.56;6339812;20;2752392;-54
2022/05/27 07:57:23;;;;;;;;;1.20;1.00;;;;;26.15;40.14;99933.81;6310175;20;2711706;-50
2022/05/27 08:00:04;;;;;;;;;1.60;1.60;;;;;26.78;38.84;99933.38;6339310;20;2730466;-55
2022/05/27 08:02:35;;;;;;;;;2.00;1.00;;;;;26.78;38.45;99936.13;6339422;20;2737782;-54
2022/05/27 08:05:05;;;;;;;;;2.00;2.00;;;;;26.46;38.68;99936.38;6340305;20;2744103;-53
2022/05/27 08:07:34;;;;;;;;;3.00;1.00;;;;;26.17;39.20;99922.59;6309272;20;2725258;-52
2022/05/27 08:10:05;;;;;;;;;2.00;2.00;;;;;26.23;39.24;99932.88;6317720;20;2753448;-51
2022/05/27 08:12:35;;;;;;;;;2.00;2.00;;;;;26.12;38.83;99925.06;6342673;20;2744017;-55
2022/05/27 08:15:12;;;;;;;;;1.20;1.20;;;;;25.84;40.86;99922.97;6309437;20;2732629;-55
2022/05/27 08:17:42;;;;;;;;;1.40;1.00;;;;;25.78;40.15;99926.44;6343069;20;2731750;-56
2022/05/27 08:20:18;;;;;;;;;2.00;2.00;;;;;26.32;38.78;99930.84;6339550;20;2750271;-57
2022/05/27 08:22:50;;;;;;;;;2.80;1.00;;;;;25.89;40.26;99912.25;6307841;20;2726444;-49
2022/05/27 08:25:22;;;;;;;;;2.00;2.00;;;;;26.33;38.27;99916.03;6340019;20;2744057;-55
2022/05/27 08:27:54;;;;;;;;;2.00;2.00;;;;;26.72;37.60;99915.72;6309329;20;2752364;-49
2022/05/27 08:30:31;;;;;;;;;2.80;2.00;;;;;26.14;39.29;99911.97;6308322;20;2744461;-55
2022/05/27 08:33:01;;;;;;;;;1.00;1.00;;;;;26.83;38.19;99914.34;6307324;20;2735687;-58
2022/05/27 08:38:31;;;;;;;;;0.00;0.00;;;;;26.88;37.23;99923.78;6309483;20;2728445;-56
2022/05/27 08:41:34;;;;;;;;;3.00;1.80;;;;;26.49;38.57;99911.19;6336072;20;2744124;-55
2022/05/27 08:44:24;;;;;;;;;1.00;1.00;;;;;26.04;38.50;99913.13;6306610;20;2724292;-54
2022/05/27 08:47:20;;;;;;;;;3.20;2.00;;;;;26.63;38.25;99906.72;6342200;20;2752348;-54
2022/05/27 08:50:27;;;;;;;;;2.00;2.00;;;;;26.83;39.00;99914.34;6306935;20;2733659;-51
2022/05/27 08:53:16;;;;;;;;;1.00;1.00;;;;;26.48;38.76;99903.09;6339647;20;2727342;-56
2022/05/27 08:59:27;;;;;;;;;2.00;2.00;;;;;26.91;38.74;99897.72;6339636;20;2739848;-55
2022/05/27 09:02:18;;;;;;;;;1.00;1.00;;;;;26.96;37.77;99899.88;6336904;20;2733669;-55
2022/05/27 09:05:15;;;;;;;;;2.00;2.00;;;;;27.25;38.00;99888.78;6342598;20;2744028;-52
2022/05/27 09:08:10;;;;;;;;;1.00;1.00;;;;;27.58;37.68;99883.53;6308858;20;2741911;-60
2022/05/27 09:11:30;;;;;;;;;2.80;1.60;;;;;27.03;37.23;99884.28;6304543;20;2746110;-59
2022/05/27 09:14:19;;;;;;;;;1.20;1.20;;;;;27.14;38.02;99869.94;6308130;20;2739895;-60
2022/05/27 09:17:06;;;;;;;;;3.20;2.00;;;;;27.84;37.00;99861.88;6303974;20;2746114;-59
2022/05/27 09:20:28;;;;;;;;;3.60;2.80;;;;;27.57;38.00;99864.44;6305962;20;2736766;-58
2022/05/27 09:24:12;;;;;;;;;3.20;2.20;;;;;27.69;36.81;99862.81;6333764;20;2736707;-58
2022/05/27 09:27:22;;;;;;;;;2.00;2.00;;;;;27.17;37.84;99864.06;6309785;20;2731579;-59
2022/05/27 09:30:14;;;;;;;;;1.00;1.00;;;;;28.03;36.62;99852.84;6336568;20;2728384;-58
2022/05/27 09:32:54;;;;;;;;;2.20;2.20;;;;;25.89;40.16;99835.22;6333691;20;2737855;-58
2022/05/27 09:36:03;;;;;;;;;2.00;2.00;;;;;26.46;38.49;99834.47;6338244;20;2740287;-59
2022/05/27 09:38:38;;;;;;;;;2.00;2.00;;;;;26.87;38.03;99836.63;6310247;20;2729413;-58
2022/05/27 09:41:29;;;;;;;;;2.40;2.40;;;;;27.63;38.43;99830.50;6333750;20;2733585;-58
2022/05/27 09:44:48;;;;;;;;;1.00;1.00;;;;;28.07;38.27;99836.72;6336695;20;2744028;-59
2022/05/27 09:47:18;;;;;;;;;2.00;2.00;;;;;27.47;37.76;99836.34;6303483;20;2741902;-58
2022/05/27 09:50:04;;;;;;;;;3.20;3.00;;;;;27.71;37.99;99822.06;6308702;20;2731649;-58
2022/05/27 09:52:39;;;;;;;;;4.60;3.00;;;;;27.50;38.09;99823.00;6336867;20;2754427;-59
2022/05/27 09:55:28;;;;;;;;;2.40;2.40;;;;;26.74;38.91;99813.59;6304542;20;2729474;-58
2022/05/27 09:58:08;;;;;;;;;2.00;2.00;;;;;26.56;39.28;99816.81;6337930;20;2734639;-58
2022/05/27 10:00:45;;;;;;;;;3.60;3.60;;;;;27.34;37.82;99813.13;6336790;20;2739982;-58
2022/05/27 10:03:37;;;;;;;;;2.60;2.60;;;;;28.22;37.59;99813.44;6339168;20;2724221;-59
2022/05/27 10:06:11;;;;;;;;;3.40;1.80;;;;;27.31;36.72;99816.28;6337357;20;2739925;-58
2022/05/27 10:08:58;;;;;;;;;2.20;2.20;;;;;27.78;36.19;99806.41;6304727;20;2744085;-59
2022/05/27 10:11:48;;;;;;;;;1.00;1.00;;;;;28.59;36.40;99807.63;6308463;20;2724273;-58
2022/05/27 10:14:34;;;;;;;;;4.20;3.20;;;;;27.58;37.81;99813.72;6340773;20;2742988;-59
2022/05/27 10:17:15;;;;;;;;;1.00;1.00;;;;;27.39;37.52;99819.94;6304328;20;2610890;-58
2022/05/27 10:19:48;;;;;;;;;2.00;2.00;;;;;27.57;37.21;99798.22;6332418;20;2752377;-58
2022/05/27 10:22:28;;;;;;;;;3.00;3.00;;;;;27.46;38.00;99804.28;6310102;20;2739832;-58
2022/05/27 10:25:11;;;;;;;;;5.40;3.00;;;;;27.44;36.71;99798.13;6311444;20;2738803;-59
2022/05/27 10:27:54;;;;;;;;;7.00;4.00;;;;;27.76;36.46;99805.75;6342785;20;2754453;-57
2022/05/27 10:30:32;;;;;;;;;3.60;3.40;;;;;27.72;37.20;99795.31;6309914;20;2738791;-58
2022/05/27 10:33:35;;;;;;;;;3.40;2.60;;;;;28.60;35.05;99793.63;6310401;20;2743990;-59
2022/05/27 10:37:09;;;;;;;;;1.80;1.80;;;;;28.82;36.48;99791.53;6310034;20;2738793;-58
2022/05/27 10:39:59;;;;;;;;;2.00;2.00;;;;;28.10;36.58;99776.44;6311689;20;2744031;-58
2022/05/27 10:42:52;;;;;;;;;3.00;3.00;;;;;28.29;36.92;99774.81;6311012;20;2735877;-53
2022/05/27 10:45:33;;;;;;;;;5.00;3.00;;;;;28.28;36.77;99773.13;6342078;20;2750383;-53
2022/05/27 10:48:27;;;;;;;;;2.40;2.40;;;;;28.01;36.56;99752.81;6311009;20;2737103;-50
2022/05/27 10:51:21;;;;;;;;;2.40;2.40;;;;;28.61;36.54;99766.84;6315792;20;2750249;-49
2022/05/27 10:54:21;;;;;;;;;4.00;2.20;;;;;28.53;34.99;99748.56;6314627;20;2744082;-53
2022/05/27 11:04:26;;;;;;;;;2.20;2.20;;;;;27.64;38.01;99732.03;6313376;20;2734645;-59
2022/05/27 11:07:57;;;;;;;;;5.20;2.60;;;;;28.01;37.92;99719.72;6312191;20;2748172;-58
2022/05/27 11:10:40;;;;;;;;;2.33;2.33;;;;;27.40;38.68;99722.38;6291866;20;2729466;-59
2022/05/27 11:17:29;;;;;;;;;3.00;3.00;;;;;28.47;37.35;99710.72;6312982;20;2744052;-57
2022/05/27 11:20:41;;;;;;;;;3.60;3.60;;;;;28.93;37.08;99703.50;6312377;20;2740956;-58
2022/05/27 11:24:00;;;;;;;;;3.00;3.00;;;;;28.44;36.77;99705.63;6316146;20;2738879;-58
2022/05/27 11:27:15;;;;;;;;;3.00;3.00;;;;;28.15;37.11;99706.81;6316239;20;2743999;-58
2022/05/27 11:30:14;;;;;;;;;2.20;2.00;;;;;28.11;38.34;99695.31;6313558;20;2738798;-58
2022/05/27 11:33:22;;;;;;;;;2.80;2.80;;;;;28.55;37.04;99685.66;6309926;20;2752322;-59
2022/05/27 11:36:35;;;;;;;;;3.00;3.00;;;;;27.84;38.30;99686.13;6313432;20;2739946;-58
2022/05/27 11:40:14;;;;;;;;;3.80;3.80;;;;;28.56;36.63;99670.78;6311806;20;2753358;-59
2022/05/27 11:43:19;;;;;;;;;1.60;1.60;;;;;28.33;36.30;99675.81;6315022;20;2729507;-56
2022/05/27 11:46:38;;;;;;;;;4.20;3.00;;;;;27.96;37.70;99680.84;6309469;20;2752365;-58
2022/05/27 11:49:39;;;;;;;;;2.60;2.60;;;;;27.78;38.30;99662.94;6308512;20;2735683;-59
2022/05/27 11:52:14;;;;;;;;;3.40;3.00;;;;;28.62;36.47;99661.66;6342550;20;2741948;-59
2022/05/27 11:55:25;;;;;;;;;3.00;3.00;;;;;28.71;36.99;99653.16;6306205;20;2748170;-61
2022/05/27 11:58:41;;;;;;;;;3.80;2.80;;;;;29.50;36.35;99655.75;6310646;20;2752439;-60
2022/05/27 12:01:41;;;;;;;;;3.40;2.40;;;;;28.84;36.92;99647.59;6312126;20;2743079;-59
2022/05/27 12:04:40;;;;;;;;;2.40;2.40;;;;;29.05;36.67;99652.91;6310060;20;2735730;-60
2022/05/27 12:07:31;;;;;;;;;4.00;4.00;;;;;28.55;36.26;99640.63;6310245;20;2746135;-48
2022/05/27 12:10:47;;;;;;;;;4.00;3.00;;;;;28.60;36.60;99633.38;6310912;20;2744065;-50
2022/05/27 12:13:45;;;;;;;;;3.20;3.00;;;;;28.76;37.53;99631.25;6308271;20;2744013;-51
2022/05/27 12:16:27;;;;;;;;;4.80;4.00;;;;;28.32;37.92;99632.69;6311004;20;2731135;-52
2022/05/27 12:19:12;;;;;;;;;2.80;2.80;;;;;28.74;36.37;99633.38;6310242;20;2739979;-52
2022/05/27 12:22:07;;;;;;;;;2.20;2.20;;;;;27.85;38.64;99617.97;6340375;20;2733638;-48
2022/05/27 12:24:49;;;;;;;;;2.00;2.00;;;;;27.72;38.26;99619.59;6310491;20;2735772;-50
2022/05/27 12:27:20;;;;;;;;;4.20;3.00;;;;;28.11;37.78;99612.50;6340464;20;2734617;-50
2022/05/27 12:29:52;;;;;;;;;4.40;4.00;;;;;28.51;36.77;99612.53;6307182;20;2734627;-53
2022/05/27 12:32:26;;;;;;;;;4.00;4.00;;;;;28.86;37.46;99604.88;6316188;20;2731516;-52
2022/05/27 12:35:32;;;;;;;;;3.33;3.33;;;;;28.83;38.13;99601.66;6314906;20;2746189;-51
2022/05/27 12:38:16;;;;;;;;;3.80;3.80;;;;;27.98;38.72;99591.25;6343549;20;2750310;-51
2022/05/27 12:41:06;;;;;;;;;5.20;4.20;;;;;28.38;37.41;99591.25;6305471;20;2747132;-52
2022/05/27 12:44:20;;;;;;;;;2.00;2.00;;;;;29.02;37.51;99580.59;6307917;20;2731554;-52
2022/05/27 12:47:00;;;;;;;;;3.60;3.60;;;;;28.61;37.16;99577.06;6338413;20;2744113;-53
2022/05/27 12:49:41;;;;;;;;;3.33;3.00;;;;;27.78;37.90;99571.88;6285250;20;2744133;-55
2022/05/27 12:52:29;;;;;;;;;4.00;4.00;;;;;27.37;38.90;99571.97;6345247;20;2750286;-52
2022/05/27 12:55:13;;;;;;;;;3.40;3.40;;;;;29.31;37.47;99574.56;6307896;20;2747150;-50
2022/05/27 13:03:46;;;;;;;;;4.00;4.00;;;;;26.95;40.24;99549.06;6314173;20;2742550;-58
2022/05/27 13:06:37;;;;;;;;;6.00;4.00;;;;;27.77;37.88;99548.09;6338484;20;2732610;-58